sensor_id;sensor_type;location;lat;lon;timestamp;P1;durP1;ratioP1;P2;durP2;ratioP2
12869;SDS011;6503;48.572;13.460;2023-09-19T00:03:35;5.72;;;1.60;;
12869;SDS011;6503;48.572;13.460;2023-09-19T00:06:48;3.35;;;1.80;;
12869;SDS011;6503;48.572;13.460;2023-09-19T00:09:47;3.37;;;1.73;;
12869;SDS011;6503;48.572;13.460;2023-09-19T00:12:39;4.20;;;1.80;;
12869;SDS011;6503;48.572;13.460;2023-09-19T00:18:31;4.80;;;1.95;;
12869;SDS011;6503;48.572;13.460;2023-09-19T00:21:25;4.90;;;2.00;;
12869;SDS011;6503;48.572;13.460;2023-09-19T00:24:17;4.28;;;1.85;;
12869;SDS011;6503;48.572;13.460;2023-09-19T00:27:10;4.38;;;2.15;;
12869;SDS011;6503;48.572;13.460;2023-09-19T00:29:59;3.55;;;2.38;;
12869;SDS011;6503;48.572;13.460;2023-09-19T00:35:46;4.72;;;2.00;;
12869;SDS011;6503;48.572;13.460;2023-09-19T00:38:19;3.75;;;1.73;;
12869;SDS011;6503;48.572;13.460;2023-09-19T00:40:59;4.07;;;2.25;;
12869;SDS011;6503;48.572;13.460;2023-09-19T00:43:50;4.53;;;2.42;;
12869;SDS011;6503;48.572;13.460;2023-09-19T00:46:47;5.22;;;2.00;;
12869;SDS011;6503;48.572;13.460;2023-09-19T00:49:16;2.35;;;1.92;;
12869;SDS011;6503;48.572;13.460;2023-09-19T00:51:48;3.65;;;1.92;;
12869;SDS011;6503;48.572;13.460;2023-09-19T00:54:21;4.45;;;2.53;;
12869;SDS011;6503;48.572;13.460;2023-09-19T00:56:55;4.75;;;2.30;;
12869;SDS011;6503;48.572;13.460;2023-09-19T00:59:29;2.92;;;2.17;;
12869;SDS011;6503;48.572;13.460;2023-09-19T01:02:06;3.00;;;2.08;;
12869;SDS011;6503;48.572;13.460;2023-09-19T01:04:34;3.75;;;2.50;;
12869;SDS011;6503;48.572;13.460;2023-09-19T01:07:02;3.97;;;2.20;;
12869;SDS011;6503;48.572;13.460;2023-09-19T01:09:31;4.07;;;1.90;;
12869;SDS011;6503;48.572;13.460;2023-09-19T01:12:01;4.85;;;1.90;;
12869;SDS011;6503;48.572;13.460;2023-09-19T01:16:58;5.57;;;1.85;;
12869;SDS011;6503;48.572;13.460;2023-09-19T01:19:42;4.10;;;2.20;;
12869;SDS011;6503;48.572;13.460;2023-09-19T01:22:21;3.78;;;2.05;;
12869;SDS011;6503;48.572;13.460;2023-09-19T01:27:52;4.85;;;2.20;;
12869;SDS011;6503;48.572;13.460;2023-09-19T01:30:24;4.88;;;1.95;;
12869;SDS011;6503;48.572;13.460;2023-09-19T01:32:56;6.93;;;2.25;;
12869;SDS011;6503;48.572;13.460;2023-09-19T01:35:24;5.90;;;2.28;;
12869;SDS011;6503;48.572;13.460;2023-09-19T01:37:52;5.30;;;2.10;;
12869;SDS011;6503;48.572;13.460;2023-09-19T01:40:19;3.05;;;2.00;;
12869;SDS011;6503;48.572;13.460;2023-09-19T01:42:50;4.43;;;2.00;;
12869;SDS011;6503;48.572;13.460;2023-09-19T01:45:24;2.92;;;1.98;;
12869;SDS011;6503;48.572;13.460;2023-09-19T01:47:54;3.90;;;2.13;;
12869;SDS011;6503;48.572;13.460;2023-09-19T01:50:29;4.15;;;1.80;;
12869;SDS011;6503;48.572;13.460;2023-09-19T01:56:16;3.15;;;2.05;;
12869;SDS011;6503;48.572;13.460;2023-09-19T01:58:56;5.03;;;2.03;;
12869;SDS011;6503;48.572;13.460;2023-09-19T02:01:31;4.95;;;2.08;;
12869;SDS011;6503;48.572;13.460;2023-09-19T02:04:05;3.95;;;1.92;;
12869;SDS011;6503;48.572;13.460;2023-09-19T02:06:32;6.10;;;2.35;;
12869;SDS011;6503;48.572;13.460;2023-09-19T02:09:14;3.42;;;2.00;;
12869;SDS011;6503;48.572;13.460;2023-09-19T02:11:41;4.38;;;2.00;;
12869;SDS011;6503;48.572;13.460;2023-09-19T02:14:21;5.78;;;2.20;;
12869;SDS011;6503;48.572;13.460;2023-09-19T02:17:06;7.75;;;2.50;;
12869;SDS011;6503;48.572;13.460;2023-09-19T02:20:02;4.82;;;1.98;;
12869;SDS011;6503;48.572;13.460;2023-09-19T02:22:39;5.65;;;2.25;;
12869;SDS011;6503;48.572;13.460;2023-09-19T02:25:06;3.60;;;2.55;;
12869;SDS011;6503;48.572;13.460;2023-09-19T02:28:01;5.35;;;2.78;;
12869;SDS011;6503;48.572;13.460;2023-09-19T02:30:35;3.08;;;1.85;;
12869;SDS011;6503;48.572;13.460;2023-09-19T02:36:20;4.90;;;2.33;;
12869;SDS011;6503;48.572;13.460;2023-09-19T02:38:56;4.43;;;2.25;;
12869;SDS011;6503;48.572;13.460;2023-09-19T02:45:16;6.88;;;1.90;;
12869;SDS011;6503;48.572;13.460;2023-09-19T02:47:44;4.32;;;1.70;;
12869;SDS011;6503;48.572;13.460;2023-09-19T02:53:35;4.65;;;1.75;;
12869;SDS011;6503;48.572;13.460;2023-09-19T02:56:22;2.53;;;1.60;;
12869;SDS011;6503;48.572;13.460;2023-09-19T02:59:03;3.08;;;1.48;;
12869;SDS011;6503;48.572;13.460;2023-09-19T03:01:31;3.40;;;1.92;;
12869;SDS011;6503;48.572;13.460;2023-09-19T03:04:15;3.25;;;1.98;;
12869;SDS011;6503;48.572;13.460;2023-09-19T03:06:58;4.03;;;2.00;;
12869;SDS011;6503;48.572;13.460;2023-09-19T03:09:56;4.13;;;2.25;;
12869;SDS011;6503;48.572;13.460;2023-09-19T03:12:37;5.85;;;2.35;;
12869;SDS011;6503;48.572;13.460;2023-09-19T03:15:05;5.13;;;2.13;;
12869;SDS011;6503;48.572;13.460;2023-09-19T03:20:32;4.68;;;2.28;;
12869;SDS011;6503;48.572;13.460;2023-09-19T03:23:13;5.50;;;2.22;;
12869;SDS011;6503;48.572;13.460;2023-09-19T03:25:42;4.05;;;2.50;;
12869;SDS011;6503;48.572;13.460;2023-09-19T03:28:10;4.82;;;2.40;;
12869;SDS011;6503;48.572;13.460;2023-09-19T03:30:37;5.03;;;2.25;;
12869;SDS011;6503;48.572;13.460;2023-09-19T03:33:04;4.20;;;2.60;;
12869;SDS011;6503;48.572;13.460;2023-09-19T03:35:33;3.75;;;2.50;;
12869;SDS011;6503;48.572;13.460;2023-09-19T03:38:04;5.40;;;4.50;;
12869;SDS011;6503;48.572;13.460;2023-09-19T03:40:31;2.80;;;2.40;;
12869;SDS011;6503;48.572;13.460;2023-09-19T03:43:01;4.30;;;2.17;;
12869;SDS011;6503;48.572;13.460;2023-09-19T03:45:29;3.50;;;2.05;;
12869;SDS011;6503;48.572;13.460;2023-09-19T03:47:56;5.07;;;2.28;;
12869;SDS011;6503;48.572;13.460;2023-09-19T03:50:23;3.53;;;2.20;;
12869;SDS011;6503;48.572;13.460;2023-09-19T03:52:57;4.10;;;2.42;;
12869;SDS011;6503;48.572;13.460;2023-09-19T03:55:24;5.45;;;2.03;;
12869;SDS011;6503;48.572;13.460;2023-09-19T03:57:53;2.97;;;2.05;;
12869;SDS011;6503;48.572;13.460;2023-09-19T04:00:25;3.63;;;2.30;;
12869;SDS011;6503;48.572;13.460;2023-09-19T04:02:54;4.53;;;2.40;;
12869;SDS011;6503;48.572;13.460;2023-09-19T04:05:31;5.32;;;2.38;;
12869;SDS011;6503;48.572;13.460;2023-09-19T04:08:01;3.03;;;2.17;;
12869;SDS011;6503;48.572;13.460;2023-09-19T04:10:28;4.60;;;2.10;;
12869;SDS011;6503;48.572;13.460;2023-09-19T04:12:56;4.65;;;2.20;;
12869;SDS011;6503;48.572;13.460;2023-09-19T04:15:25;5.47;;;2.05;;
12869;SDS011;6503;48.572;13.460;2023-09-19T04:17:52;5.30;;;2.20;;
12869;SDS011;6503;48.572;13.460;2023-09-19T04:20:20;4.03;;;2.08;;
12869;SDS011;6503;48.572;13.460;2023-09-19T04:22:50;3.08;;;1.90;;
12869;SDS011;6503;48.572;13.460;2023-09-19T04:25:18;2.65;;;1.90;;
12869;SDS011;6503;48.572;13.460;2023-09-19T04:27:45;4.75;;;2.00;;
12869;SDS011;6503;48.572;13.460;2023-09-19T04:30:13;5.18;;;2.13;;
12869;SDS011;6503;48.572;13.460;2023-09-19T04:32:43;5.20;;;3.47;;
12869;SDS011;6503;48.572;13.460;2023-09-19T04:35:15;2.70;;;1.90;;
12869;SDS011;6503;48.572;13.460;2023-09-19T04:37:43;3.95;;;1.77;;
12869;SDS011;6503;48.572;13.460;2023-09-19T04:40:11;4.05;;;1.83;;
12869;SDS011;6503;48.572;13.460;2023-09-19T04:42:42;2.85;;;1.70;;
12869;SDS011;6503;48.572;13.460;2023-09-19T04:45:09;5.18;;;1.90;;
12869;SDS011;6503;48.572;13.460;2023-09-19T04:47:37;4.78;;;2.25;;
12869;SDS011;6503;48.572;13.460;2023-09-19T04:50:09;4.43;;;2.53;;
12869;SDS011;6503;48.572;13.460;2023-09-19T04:52:40;3.95;;;2.00;;
12869;SDS011;6503;48.572;13.460;2023-09-19T04:55:09;4.32;;;1.95;;
12869;SDS011;6503;48.572;13.460;2023-09-19T05:03:01;2.58;;;1.50;;
12869;SDS011;6503;48.572;13.460;2023-09-19T11:01:45;2.90;;;1.95;;
12869;SDS011;6503;48.572;13.460;2023-09-19T11:04:26;3.92;;;2.00;;
12869;SDS011;6503;48.572;13.460;2023-09-19T11:07:09;3.72;;;2.40;;
12869;SDS011;6503;48.572;13.460;2023-09-19T11:09:47;3.78;;;2.00;;
12869;SDS011;6503;48.572;13.460;2023-09-19T11:24:31;3.80;;;1.60;;
12869;SDS011;6503;48.572;13.460;2023-09-19T11:27:13;4.80;;;1.67;;
12869;SDS011;6503;48.572;13.460;2023-09-19T11:29:49;2.78;;;1.80;;
12869;SDS011;6503;48.572;13.460;2023-09-19T11:35:23;2.60;;;1.40;;
12869;SDS011;6503;48.572;13.460;2023-09-19T11:53:07;3.17;;;2.00;;
12869;SDS011;6503;48.572;13.460;2023-09-19T11:55:42;3.30;;;1.95;;
12869;SDS011;6503;48.572;13.460;2023-09-19T11:58:40;4.65;;;2.55;;
12869;SDS011;6503;48.572;13.460;2023-09-19T12:01:14;2.13;;;1.52;;
12869;SDS011;6503;48.572;13.460;2023-09-19T12:03:46;5.28;;;1.50;;
12869;SDS011;6503;48.572;13.460;2023-09-19T12:06:15;1.98;;;1.65;;
12869;SDS011;6503;48.572;13.460;2023-09-19T12:08:48;4.00;;;1.30;;
12869;SDS011;6503;48.572;13.460;2023-09-19T12:11:22;3.53;;;1.65;;
12869;SDS011;6503;48.572;13.460;2023-09-19T12:13:57;2.35;;;1.90;;
12869;SDS011;6503;48.572;13.460;2023-09-19T12:16:41;3.42;;;1.52;;
12869;SDS011;6503;48.572;13.460;2023-09-19T12:19:20;6.68;;;2.20;;
12869;SDS011;6503;48.572;13.460;2023-09-19T12:21:55;5.38;;;1.83;;
12869;SDS011;6503;48.572;13.460;2023-09-19T12:24:31;9.13;;;1.60;;
12869;SDS011;6503;48.572;13.460;2023-09-19T12:27:00;4.43;;;1.33;;
12869;SDS011;6503;48.572;13.460;2023-09-19T12:29:30;6.80;;;1.90;;
12869;SDS011;6503;48.572;13.460;2023-09-19T12:32:01;2.85;;;1.75;;
12869;SDS011;6503;48.572;13.460;2023-09-19T12:37:03;3.22;;;1.58;;
12869;SDS011;6503;48.572;13.460;2023-09-19T12:39:45;4.32;;;1.77;;
12869;SDS011;6503;48.572;13.460;2023-09-19T12:42:14;3.92;;;1.63;;
12869;SDS011;6503;48.572;13.460;2023-09-19T12:44:47;5.30;;;2.03;;
12869;SDS011;6503;48.572;13.460;2023-09-19T12:47:20;4.00;;;1.60;;
12869;SDS011;6503;48.572;13.460;2023-09-19T12:53:05;3.15;;;1.38;;
12869;SDS011;6503;48.572;13.460;2023-09-19T12:55:36;2.97;;;1.25;;
12869;SDS011;6503;48.572;13.460;2023-09-19T12:58:17;4.35;;;1.23;;
12869;SDS011;6503;48.572;13.460;2023-09-19T13:00:58;2.08;;;1.25;;
12869;SDS011;6503;48.572;13.460;2023-09-19T13:03:26;6.18;;;1.50;;
12869;SDS011;6503;48.572;13.460;2023-09-19T13:08:39;3.83;;;1.48;;
12869;SDS011;6503;48.572;13.460;2023-09-19T13:11:35;4.13;;;2.70;;
12869;SDS011;6503;48.572;13.460;2023-09-19T13:17:15;4.10;;;1.63;;
12869;SDS011;6503;48.572;13.460;2023-09-19T13:19:48;6.35;;;1.92;;
12869;SDS011;6503;48.572;13.460;2023-09-19T13:22:38;3.60;;;1.77;;
12869;SDS011;6503;48.572;13.460;2023-09-19T13:25:15;4.43;;;1.60;;
12869;SDS011;6503;48.572;13.460;2023-09-19T13:30:46;2.65;;;1.42;;
12869;SDS011;6503;48.572;13.460;2023-09-19T13:33:43;2.50;;;1.75;;
12869;SDS011;6503;48.572;13.460;2023-09-19T13:36:13;3.75;;;1.67;;
12869;SDS011;6503;48.572;13.460;2023-09-19T13:39:01;2.78;;;1.73;;
12869;SDS011;6503;48.572;13.460;2023-09-19T13:41:30;1.95;;;1.17;;
12869;SDS011;6503;48.572;13.460;2023-09-19T13:50:09;1.83;;;1.38;;
12869;SDS011;6503;48.572;13.460;2023-09-19T13:52:49;2.15;;;1.40;;
12869;SDS011;6503;48.572;13.460;2023-09-19T13:55:36;3.00;;;1.70;;
12869;SDS011;6503;48.572;13.460;2023-09-19T13:58:14;3.83;;;1.70;;
12869;SDS011;6503;48.572;13.460;2023-09-19T14:00:44;6.18;;;1.85;;
12869;SDS011;6503;48.572;13.460;2023-09-19T14:03:15;2.45;;;1.55;;
12869;SDS011;6503;48.572;13.460;2023-09-19T14:05:44;2.05;;;1.30;;
12869;SDS011;6503;48.572;13.460;2023-09-19T14:08:14;2.10;;;1.45;;
12869;SDS011;6503;48.572;13.460;2023-09-19T14:10:42;2.55;;;1.48;;
12869;SDS011;6503;48.572;13.460;2023-09-19T14:13:14;3.90;;;2.45;;
12869;SDS011;6503;48.572;13.460;2023-09-19T14:15:41;3.65;;;1.88;;
12869;SDS011;6503;48.572;13.460;2023-09-19T14:18:12;2.58;;;1.35;;
12869;SDS011;6503;48.572;13.460;2023-09-19T14:20:54;2.67;;;1.20;;
12869;SDS011;6503;48.572;13.460;2023-09-19T14:23:33;1.70;;;1.10;;
12869;SDS011;6503;48.572;13.460;2023-09-19T14:26:04;3.08;;;1.30;;
12869;SDS011;6503;48.572;13.460;2023-09-19T14:28:36;4.65;;;1.40;;
12869;SDS011;6503;48.572;13.460;2023-09-19T14:31:04;1.90;;;1.30;;
12869;SDS011;6503;48.572;13.460;2023-09-19T14:33:33;1.83;;;1.02;;
12869;SDS011;6503;48.572;13.460;2023-09-19T14:36:06;2.15;;;1.40;;
12869;SDS011;6503;48.572;13.460;2023-09-19T14:38:37;2.28;;;1.30;;
12869;SDS011;6503;48.572;13.460;2023-09-19T14:41:10;2.45;;;1.40;;
12869;SDS011;6503;48.572;13.460;2023-09-19T14:43:53;1.88;;;1.20;;
12869;SDS011;6503;48.572;13.460;2023-09-19T14:46:25;3.83;;;1.35;;
12869;SDS011;6503;48.572;13.460;2023-09-19T14:49:06;2.30;;;1.30;;
12869;SDS011;6503;48.572;13.460;2023-09-19T14:51:43;1.50;;;1.13;;
12869;SDS011;6503;48.572;13.460;2023-09-19T14:54:12;2.53;;;1.27;;
12869;SDS011;6503;48.572;13.460;2023-09-19T14:56:44;4.00;;;1.10;;
12869;SDS011;6503;48.572;13.460;2023-09-19T14:59:18;4.30;;;1.65;;
12869;SDS011;6503;48.572;13.460;2023-09-19T15:01:47;2.17;;;1.30;;
12869;SDS011;6503;48.572;13.460;2023-09-19T15:04:17;3.33;;;1.20;;
12869;SDS011;6503;48.572;13.460;2023-09-19T15:06:47;3.13;;;1.80;;
12869;SDS011;6503;48.572;13.460;2023-09-19T15:09:16;2.08;;;1.48;;
12869;SDS011;6503;48.572;13.460;2023-09-19T15:11:49;2.92;;;1.60;;
12869;SDS011;6503;48.572;13.460;2023-09-19T15:14:17;3.28;;;1.40;;
12869;SDS011;6503;48.572;13.460;2023-09-19T15:16:45;2.63;;;1.63;;
12869;SDS011;6503;48.572;13.460;2023-09-19T15:19:13;4.22;;;1.48;;
12869;SDS011;6503;48.572;13.460;2023-09-19T15:21:40;2.38;;;1.65;;
12869;SDS011;6503;48.572;13.460;2023-09-19T15:24:09;1.70;;;1.10;;
12869;SDS011;6503;48.572;13.460;2023-09-19T15:26:37;2.03;;;1.02;;
12869;SDS011;6503;48.572;13.460;2023-09-19T15:29:05;2.65;;;1.20;;
12869;SDS011;6503;48.572;13.460;2023-09-19T15:31:32;3.20;;;1.38;;
12869;SDS011;6503;48.572;13.460;2023-09-19T15:34:02;2.28;;;1.42;;
12869;SDS011;6503;48.572;13.460;2023-09-19T15:36:30;1.58;;;1.05;;
12869;SDS011;6503;48.572;13.460;2023-09-19T15:39:01;2.22;;;1.30;;
12869;SDS011;6503;48.572;13.460;2023-09-19T15:41:33;4.72;;;1.77;;
12869;SDS011;6503;48.572;13.460;2023-09-19T15:44:17;2.72;;;1.60;;
12869;SDS011;6503;48.572;13.460;2023-09-19T15:46:45;2.85;;;1.40;;
12869;SDS011;6503;48.572;13.460;2023-09-19T15:49:15;2.88;;;1.67;;
12869;SDS011;6503;48.572;13.460;2023-09-19T15:51:43;3.28;;;1.13;;
12869;SDS011;6503;48.572;13.460;2023-09-19T15:54:13;2.05;;;1.40;;
12869;SDS011;6503;48.572;13.460;2023-09-19T15:56:43;2.88;;;1.15;;
12869;SDS011;6503;48.572;13.460;2023-09-19T15:59:11;2.25;;;1.60;;
12869;SDS011;6503;48.572;13.460;2023-09-19T16:01:40;1.63;;;1.30;;
12869;SDS011;6503;48.572;13.460;2023-09-19T16:04:10;3.88;;;1.40;;
12869;SDS011;6503;48.572;13.460;2023-09-19T16:06:38;2.47;;;1.40;;
12869;SDS011;6503;48.572;13.460;2023-09-19T16:09:06;3.28;;;1.30;;
12869;SDS011;6503;48.572;13.460;2023-09-19T16:11:34;2.40;;;1.30;;
12869;SDS011;6503;48.572;13.460;2023-09-19T16:14:04;3.05;;;1.20;;
12869;SDS011;6503;48.572;13.460;2023-09-19T16:16:32;2.75;;;1.35;;
12869;SDS011;6503;48.572;13.460;2023-09-19T16:19:07;2.83;;;1.27;;
12869;SDS011;6503;48.572;13.460;2023-09-19T16:21:38;2.17;;;1.25;;
12869;SDS011;6503;48.572;13.460;2023-09-19T16:24:08;3.10;;;2.28;;
12869;SDS011;6503;48.572;13.460;2023-09-19T16:26:36;2.05;;;1.60;;
12869;SDS011;6503;48.572;13.460;2023-09-19T16:29:05;3.45;;;1.90;;
12869;SDS011;6503;48.572;13.460;2023-09-19T16:31:37;2.30;;;1.50;;
12869;SDS011;6503;48.572;13.460;2023-09-19T16:34:04;4.03;;;1.90;;
12869;SDS011;6503;48.572;13.460;2023-09-19T16:36:34;2.17;;;1.90;;
12869;SDS011;6503;48.572;13.460;2023-09-19T16:39:02;6.05;;;2.17;;
12869;SDS011;6503;48.572;13.460;2023-09-19T16:41:29;3.13;;;1.77;;
12869;SDS011;6503;48.572;13.460;2023-09-19T16:43:58;3.22;;;1.55;;
12869;SDS011;6503;48.572;13.460;2023-09-19T16:46:27;4.55;;;1.25;;
12869;SDS011;6503;48.572;13.460;2023-09-19T16:48:55;2.00;;;1.30;;
12869;SDS011;6503;48.572;13.460;2023-09-19T16:51:22;2.22;;;1.40;;
12869;SDS011;6503;48.572;13.460;2023-09-19T16:53:50;2.50;;;1.55;;
12869;SDS011;6503;48.572;13.460;2023-09-19T16:56:17;3.80;;;1.52;;
12869;SDS011;6503;48.572;13.460;2023-09-19T16:58:46;2.50;;;1.55;;
12869;SDS011;6503;48.572;13.460;2023-09-19T17:01:15;3.45;;;1.70;;
12869;SDS011;6503;48.572;13.460;2023-09-19T17:03:46;4.57;;;1.85;;
12869;SDS011;6503;48.572;13.460;2023-09-19T17:06:16;5.15;;;2.00;;
12869;SDS011;6503;48.572;13.460;2023-09-19T17:08:46;3.42;;;2.00;;
12869;SDS011;6503;48.572;13.460;2023-09-19T17:11:14;3.78;;;1.90;;
12869;SDS011;6503;48.572;13.460;2023-09-19T17:13:43;4.50;;;2.10;;
12869;SDS011;6503;48.572;13.460;2023-09-19T17:16:12;2.42;;;1.85;;
12869;SDS011;6503;48.572;13.460;2023-09-19T17:18:51;2.88;;;1.67;;
12869;SDS011;6503;48.572;13.460;2023-09-19T17:21:18;5.32;;;2.08;;
12869;SDS011;6503;48.572;13.460;2023-09-19T17:23:49;3.03;;;1.50;;
12869;SDS011;6503;48.572;13.460;2023-09-19T17:26:18;3.45;;;1.73;;
12869;SDS011;6503;48.572;13.460;2023-09-19T17:28:46;3.75;;;1.67;;
12869;SDS011;6503;48.572;13.460;2023-09-19T17:31:21;3.92;;;1.45;;
12869;SDS011;6503;48.572;13.460;2023-09-19T17:33:51;1.98;;;1.77;;
12869;SDS011;6503;48.572;13.460;2023-09-19T17:36:18;2.28;;;1.55;;
12869;SDS011;6503;48.572;13.460;2023-09-19T17:38:47;3.55;;;1.80;;
12869;SDS011;6503;48.572;13.460;2023-09-19T17:41:14;2.85;;;1.60;;
12869;SDS011;6503;48.572;13.460;2023-09-19T17:43:42;4.22;;;1.50;;
12869;SDS011;6503;48.572;13.460;2023-09-19T17:46:10;2.97;;;1.73;;
12869;SDS011;6503;48.572;13.460;2023-09-19T17:48:37;3.47;;;1.80;;
12869;SDS011;6503;48.572;13.460;2023-09-19T17:51:07;2.63;;;1.75;;
12869;SDS011;6503;48.572;13.460;2023-09-19T17:53:36;4.07;;;1.70;;
12869;SDS011;6503;48.572;13.460;2023-09-19T17:56:07;2.47;;;1.95;;
12869;SDS011;6503;48.572;13.460;2023-09-19T17:58:35;6.63;;;2.53;;
12869;SDS011;6503;48.572;13.460;2023-09-19T18:01:09;4.05;;;2.22;;
12869;SDS011;6503;48.572;13.460;2023-09-19T18:03:37;4.88;;;2.10;;
12869;SDS011;6503;48.572;13.460;2023-09-19T18:06:07;3.30;;;1.90;;
12869;SDS011;6503;48.572;13.460;2023-09-19T18:08:35;3.38;;;1.90;;
12869;SDS011;6503;48.572;13.460;2023-09-19T18:11:04;5.90;;;2.33;;
12869;SDS011;6503;48.572;13.460;2023-09-19T18:13:39;3.05;;;2.17;;
12869;SDS011;6503;48.572;13.460;2023-09-19T18:16:07;3.42;;;2.40;;
12869;SDS011;6503;48.572;13.460;2023-09-19T18:18:35;2.97;;;2.00;;
12869;SDS011;6503;48.572;13.460;2023-09-19T18:21:03;2.58;;;1.70;;
12869;SDS011;6503;48.572;13.460;2023-09-19T18:23:32;4.18;;;2.80;;
12869;SDS011;6503;48.572;13.460;2023-09-19T18:25:59;3.95;;;2.08;;
12869;SDS011;6503;48.572;13.460;2023-09-19T18:28:30;3.35;;;1.70;;
12869;SDS011;6503;48.572;13.460;2023-09-19T18:30:58;4.20;;;1.92;;
12869;SDS011;6503;48.572;13.460;2023-09-19T18:33:25;3.03;;;2.30;;
12869;SDS011;6503;48.572;13.460;2023-09-19T18:35:53;4.93;;;2.17;;
12869;SDS011;6503;48.572;13.460;2023-09-19T18:38:20;2.58;;;2.08;;
12869;SDS011;6503;48.572;13.460;2023-09-19T18:40:51;6.53;;;2.22;;
12869;SDS011;6503;48.572;13.460;2023-09-19T18:43:19;5.90;;;2.72;;
12869;SDS011;6503;48.572;13.460;2023-09-19T18:45:54;4.50;;;2.75;;
12869;SDS011;6503;48.572;13.460;2023-09-19T18:48:22;7.72;;;4.70;;
12869;SDS011;6503;48.572;13.460;2023-09-19T18:50:53;7.68;;;3.63;;
12869;SDS011;6503;48.572;13.460;2023-09-19T18:53:20;3.55;;;2.63;;
12869;SDS011;6503;48.572;13.460;2023-09-19T18:55:54;3.40;;;2.50;;
12869;SDS011;6503;48.572;13.460;2023-09-19T18:58:29;5.00;;;2.35;;
12869;SDS011;6503;48.572;13.460;2023-09-19T19:00:59;4.00;;;2.47;;
12869;SDS011;6503;48.572;13.460;2023-09-19T19:03:27;3.60;;;2.55;;
12869;SDS011;6503;48.572;13.460;2023-09-19T19:05:55;4.35;;;2.70;;
12869;SDS011;6503;48.572;13.460;2023-09-19T19:08:24;5.05;;;2.60;;
12869;SDS011;6503;48.572;13.460;2023-09-19T19:10:54;4.72;;;2.80;;
12869;SDS011;6503;48.572;13.460;2023-09-19T19:13:21;3.67;;;2.78;;
12869;SDS011;6503;48.572;13.460;2023-09-19T19:15:49;3.92;;;3.22;;
12869;SDS011;6503;48.572;13.460;2023-09-19T19:18:19;6.10;;;3.75;;
12869;SDS011;6503;48.572;13.460;2023-09-19T19:20:56;5.25;;;2.92;;
12869;SDS011;6503;48.572;13.460;2023-09-19T19:25:51;3.15;;;2.40;;
12869;SDS011;6503;48.572;13.460;2023-09-19T19:28:24;6.65;;;3.00;;
12869;SDS011;6503;48.572;13.460;2023-09-19T19:33:18;3.65;;;2.30;;
12869;SDS011;6503;48.572;13.460;2023-09-19T19:35:47;3.30;;;2.45;;
12869;SDS011;6503;48.572;13.460;2023-09-19T19:38:14;5.93;;;2.75;;
12869;SDS011;6503;48.572;13.460;2023-09-19T19:40:42;5.10;;;2.60;;
12869;SDS011;6503;48.572;13.460;2023-09-19T19:43:09;4.75;;;2.60;;
12869;SDS011;6503;48.572;13.460;2023-09-19T19:45:39;5.78;;;2.65;;
12869;SDS011;6503;48.572;13.460;2023-09-19T19:48:06;3.35;;;2.42;;
12869;SDS011;6503;48.572;13.460;2023-09-19T19:50:37;4.70;;;3.28;;
12869;SDS011;6503;48.572;13.460;2023-09-19T19:53:06;5.15;;;2.78;;
12869;SDS011;6503;48.572;13.460;2023-09-19T19:55:34;6.32;;;2.97;;
12869;SDS011;6503;48.572;13.460;2023-09-19T19:58:01;4.80;;;2.20;;
12869;SDS011;6503;48.572;13.460;2023-09-19T20:00:30;2.70;;;2.50;;
12869;SDS011;6503;48.572;13.460;2023-09-19T20:03:00;4.15;;;2.78;;
12869;SDS011;6503;48.572;13.460;2023-09-19T20:05:28;3.08;;;2.50;;
12869;SDS011;6503;48.572;13.460;2023-09-19T20:07:56;5.22;;;2.92;;
12869;SDS011;6503;48.572;13.460;2023-09-19T20:10:24;6.65;;;2.80;;
12869;SDS011;6503;48.572;13.460;2023-09-19T20:12:52;4.40;;;2.47;;
12869;SDS011;6503;48.572;13.460;2023-09-19T20:15:19;4.75;;;2.70;;
12869;SDS011;6503;48.572;13.460;2023-09-19T20:17:50;7.03;;;3.20;;
12869;SDS011;6503;48.572;13.460;2023-09-19T20:20:19;5.28;;;2.83;;
12869;SDS011;6503;48.572;13.460;2023-09-19T20:22:47;3.33;;;2.58;;
12869;SDS011;6503;48.572;13.460;2023-09-19T20:25:15;3.42;;;2.85;;
12869;SDS011;6503;48.572;13.460;2023-09-19T20:27:42;3.67;;;2.60;;
12869;SDS011;6503;48.572;13.460;2023-09-19T20:30:10;3.75;;;2.35;;
12869;SDS011;6503;48.572;13.460;2023-09-19T20:32:39;7.35;;;2.80;;
12869;SDS011;6503;48.572;13.460;2023-09-19T20:35:07;7.95;;;3.17;;
12869;SDS011;6503;48.572;13.460;2023-09-19T20:37:37;7.00;;;3.40;;
12869;SDS011;6503;48.572;13.460;2023-09-19T20:40:06;3.58;;;2.90;;
12869;SDS011;6503;48.572;13.460;2023-09-19T20:42:35;5.28;;;3.25;;
12869;SDS011;6503;48.572;13.460;2023-09-19T20:45:03;4.40;;;2.55;;
12869;SDS011;6503;48.572;13.460;2023-09-19T20:47:31;5.13;;;3.67;;
12869;SDS011;6503;48.572;13.460;2023-09-19T20:49:58;6.55;;;3.13;;
12869;SDS011;6503;48.572;13.460;2023-09-19T20:52:26;5.47;;;2.92;;
12869;SDS011;6503;48.572;13.460;2023-09-19T20:54:55;3.78;;;2.83;;
12869;SDS011;6503;48.572;13.460;2023-09-19T20:57:22;5.00;;;3.20;;
12869;SDS011;6503;48.572;13.460;2023-09-19T20:59:51;5.78;;;3.20;;
12869;SDS011;6503;48.572;13.460;2023-09-19T21:02:21;5.18;;;3.65;;
12869;SDS011;6503;48.572;13.460;2023-09-19T21:04:49;5.03;;;3.22;;
12869;SDS011;6503;48.572;13.460;2023-09-19T21:07:17;5.25;;;3.10;;
12869;SDS011;6503;48.572;13.460;2023-09-19T21:09:45;5.03;;;3.38;;
12869;SDS011;6503;48.572;13.460;2023-09-19T21:12:14;3.83;;;3.50;;
12869;SDS011;6503;48.572;13.460;2023-09-19T21:14:42;4.60;;;3.40;;
12869;SDS011;6503;48.572;13.460;2023-09-19T21:17:10;4.85;;;3.67;;
12869;SDS011;6503;48.572;13.460;2023-09-19T21:19:37;6.43;;;3.45;;
12869;SDS011;6503;48.572;13.460;2023-09-19T21:22:05;6.78;;;4.10;;
12869;SDS011;6503;48.572;13.460;2023-09-19T21:24:32;6.10;;;4.40;;
12869;SDS011;6503;48.572;13.460;2023-09-19T21:27:03;4.40;;;4.00;;
12869;SDS011;6503;48.572;13.460;2023-09-19T21:29:36;3.90;;;3.50;;
12869;SDS011;6503;48.572;13.460;2023-09-19T21:32:04;5.03;;;3.67;;
12869;SDS011;6503;48.572;13.460;2023-09-19T21:34:33;5.00;;;4.20;;
12869;SDS011;6503;48.572;13.460;2023-09-19T21:37:01;4.57;;;4.18;;
12869;SDS011;6503;48.572;13.460;2023-09-19T21:39:28;6.38;;;4.32;;
12869;SDS011;6503;48.572;13.460;2023-09-19T21:41:56;6.25;;;5.22;;
12869;SDS011;6503;48.572;13.460;2023-09-19T21:44:23;4.97;;;4.53;;
12869;SDS011;6503;48.572;13.460;2023-09-19T21:46:52;5.15;;;4.60;;
12869;SDS011;6503;48.572;13.460;2023-09-19T21:49:21;5.30;;;4.78;;
12869;SDS011;6503;48.572;13.460;2023-09-19T21:51:48;8.30;;;4.90;;
12869;SDS011;6503;48.572;13.460;2023-09-19T21:54:15;7.35;;;4.22;;
12869;SDS011;6503;48.572;13.460;2023-09-19T21:56:43;7.25;;;4.43;;
12869;SDS011;6503;48.572;13.460;2023-09-19T21:59:15;5.88;;;4.40;;
12869;SDS011;6503;48.572;13.460;2023-09-19T22:01:42;8.05;;;4.53;;
12869;SDS011;6503;48.572;13.460;2023-09-19T22:04:11;5.20;;;4.70;;
12869;SDS011;6503;48.572;13.460;2023-09-19T22:06:42;5.60;;;4.95;;
12869;SDS011;6503;48.572;13.460;2023-09-19T22:18:16;5.53;;;4.18;;
12869;SDS011;6503;48.572;13.460;2023-09-19T22:20:48;4.77;;;4.30;;
12869;SDS011;6503;48.572;13.460;2023-09-19T22:23:19;6.05;;;4.70;;
12869;SDS011;6503;48.572;13.460;2023-09-19T22:25:50;7.40;;;5.00;;
12869;SDS011;6503;48.572;13.460;2023-09-19T22:28:19;6.45;;;5.00;;
12869;SDS011;6503;48.572;13.460;2023-09-19T22:30:46;6.30;;;5.70;;
12869;SDS011;6503;48.572;13.460;2023-09-19T22:33:14;6.90;;;5.55;;
12869;SDS011;6503;48.572;13.460;2023-09-19T22:35:42;6.30;;;5.68;;
12869;SDS011;6503;48.572;13.460;2023-09-19T22:38:14;6.03;;;5.43;;
12869;SDS011;6503;48.572;13.460;2023-09-19T22:40:41;6.40;;;5.40;;
12869;SDS011;6503;48.572;13.460;2023-09-19T22:43:16;5.40;;;4.90;;
12869;SDS011;6503;48.572;13.460;2023-09-19T22:45:46;5.55;;;5.05;;
12869;SDS011;6503;48.572;13.460;2023-09-19T22:48:13;6.53;;;4.90;;
12869;SDS011;6503;48.572;13.460;2023-09-19T22:50:41;5.60;;;5.10;;
12869;SDS011;6503;48.572;13.460;2023-09-19T22:53:10;5.47;;;4.90;;